Lytham St Annes, United Kingdom
Current Conditions -  °F | °C
As of 7:20 PM on Tuesday 25 Nov 2014 (Local Time) from EGNO Reporting Station
Rain Showers Rain Showers  
Wind Chill: 38°   Ceiling: Unl
Heat Index: 41°   Visibility: 6mi
Dew Point: 39°   Wind: 5mph
Humidity: 93%   Direction: 70°ENE
Pressure: 30.15"   Gusts: NA
Location:  53.75°N, 3.03°W
Report Text: EGNO 251920Z 07004KT 9999 -SHRA SCT036 05/04 Q1021
Loading
Personal Weather Stations






























Interactive Weather Map New forecast layout! Learn more

10-Day Weather Forecast

Advertisements
Track Severe Weather on mobile